x

West Washington - 300nm West Of Aberdeen, Wa (46005) Wave Buoy

2:50am - Thu 23rd Oct 2014 All times are UTC.

  • Sig Wave height 11.8ft
  • Swell Direction
  • Peak Period 12s
  • Average Period 8s
  • Wind
    16mph, 20mph gusts
  • Sea Temp 62°f
  • Air Temp 57°f
  • Sea Pressure 1000.4mb

More Historic Weather Station data

Upgrade to MSW Pro to gain access to the past 30 days of data for over 8000 Wavebouys and Weather Stations around the globe.

Join Pro

Comparision Forecast

View Surf forecast
   
Thu 10/23 2:50am 12ft 12s 8s 16 20 mph 1000.4mb 62f 57f
1:50am 12ft 11s 8s 18 22 mph 1000.3mb 62f 57f
12:50am 12.5ft 12s 8s 20 27 mph 999.8mb 62f 58f
Wed 10/22 11:50pm 12ft 13s 8s 20 29 mph 999.6mb 62f 58f
10:50pm 12.5ft 13s 8s 20 25 mph 999.7mb 62f 56f
9:50pm 13ft 12s 8s 16 20 mph 999.3mb 62f 57f
8:50pm 12.5ft 12s 8s 13 25 mph 999.7mb 62f 56f
7:50pm 13ft 13s 8s 20 22 mph 999.2mb 62f 58f
6:50pm 12.5ft 13s 8s 18 20 mph 999.3mb 62f 57f
5:50pm 13ft 11s 8s 16 22 mph 999.3mb 62f 59f
4:50pm 14ft 14s 8s 18 22 mph 999.2mb 62f 59f
3:50pm 13.5ft 11s 8s 18 25 mph 999.2mb 62f 59f
2:50pm 15.5ft 14s 9s 20 27 mph 999mb 62f 59f
1:50pm 16.5ft 13s 8s 22 29 mph 999mb 62f 60f
12:50pm 17ft 14s 9s 22 29 mph 999.1mb 62f 58f
11:50am 15.5ft 13s 9s 20 25 mph 999.2mb 62f 57f
10:50am 15.5ft 14s 8s 27 34 mph 998.8mb 62f 58f
9:50am 16.5ft 13s 9s 29 36 mph 998.3mb 62f 61f
8:50am 17.5ft 15s 10s 25 31 mph 998.6mb 62f 60f
7:50am 17.5ft 15s 10s 22 27 mph 998.9mb 62f 60f
6:50am 18.5ft 15s 10s 20 25 mph 999mb 62f 60f
5:50am 17.5ft 13s 10s 20 25 mph 998.9mb 62f 60f
4:50am 16.5ft 15s 9s 18 25 mph 998.7mb 62f 59f
3:50am 15.5ft 11s 9s 16 22 mph 998.7mb 62f 58f
2:50am 14ft 11s 9s 16 22 mph 998.4mb 62f 58f
1:50am 14.5ft 12s 9s 16 20 mph 997.9mb 62f 57f
12:50am 13ft 13s 9s 16 18 mph 997.8mb 62f 56f
Tue 10/21 11:50pm 13ft 12s 8s 2 7 mph 998mb 62f 55f
10:50pm 13ft 11s 9s 9 11 mph 999.2mb 62f 55f
9:50pm 13.5ft 11s 8s 11 18 mph 1000.4mb 62f 55f
8:50pm 12.5ft 11s 8s 13 18 mph 1001.5mb 62f 57f
7:50pm 13ft 11s 8s 20 25 mph 1002.5mb 62f 58f
6:50pm 13.5ft 12s 8s 20 25 mph 1002.3mb 62f 62f
5:50pm 12ft 12s 8s 18 22 mph 1002.7mb 62f 62f
4:50pm 12.5ft 11s 8s 18 22 mph 1003.1mb 62f 62f
3:50pm 12ft 10s 7s 20 25 mph 1002.8mb 62f 62f
2:50pm 12.5ft 12s 8s 22 27 mph 1002.4mb 62f 62f
1:50pm 13.5ft 9s 8s 20 25 mph 1002.6mb 62f 62f
12:50pm 14ft 10s 8s 22 27 mph 1002.4mb 62f 61f
11:50am 14ft 8s 8s 27 34 mph 1002.2mb 62f 62f
10:50am 14ft 14s 7s 29 34 mph 1002.1mb 62f 61f
9:50am 13.5ft 13s 8s 29 36 mph 1002.7mb 62f 61f
8:50am 13ft 14s 8s 29 38 mph 1003mb 62f 60f
7:50am 13.5ft 14s 8s 29 36 mph 1003.5mb 62f 60f
6:50am 13.5ft 11s 8s 25 31 mph 1004mb 62f 60f
5:50am 13.5ft 14s 8s 22 29 mph 1004.4mb 63f 60f
4:50am 14ft 13s 9s 22 29 mph 1004.7mb 63f 59f
3:50am 15ft 13s 9s 22 29 mph 1004.9mb 63f 59f
2:50am 15ft 13s 9s 18 20 mph 1005.2mb 63f 59f
1:50am 15ft 14s 9s 16 20 mph 1005.4mb 63f 58f
12:50am 15.5ft 14s 10s 16 20 mph 1005.5mb 63f 60f
Mon 10/20 11:50pm 15ft 14s 10s 11 16 mph 1005.9mb 63f 60f
10:50pm 15ft 15s 10s 9 11 mph 1006.2mb 63f 57f
9:50pm 16.5ft 15s 10s 9 13 mph 1005.8mb 63f 61f
8:50pm 14.5ft 14s 9s 13 18 mph 1005.6mb 63f 60f
7:50pm 16ft 14s 10s 9 13 mph 1005.4mb 63f 60f
6:50pm 16ft 14s 10s 11 16 mph 1005mb 62f 60f
5:50pm 15.5ft 16s 10s 9 13 mph 1004.6mb 62f 60f
4:50pm 14ft 16s 10s 18 25 mph 1003.9mb 62f 58f
3:50pm 16.5ft 15s 10s 16 20 mph 1003mb 62f 60f
2:50pm 15ft 15s 10s 13 20 mph 1002.2mb 62f 60f
1:50pm 14ft 13s 9s 13 20 mph 1001.8mb 62f 60f
12:50pm 13ft 15s 9s 16 22 mph 1001.3mb 62f 60f
11:50am 14ft 15s 9s 13 18 mph 1000.8mb 62f 60f
10:50am 14ft 15s 9s 13 18 mph 1000.3mb 62f 61f
9:50am 14ft 15s 9s 18 22 mph 999.7mb 63f 61f
8:50am 15ft 16s 9s 20 25 mph 998.9mb 63f 60f
7:50am 15ft 15s 9s 20 25 mph 998.2mb 63f 61f
6:50am 15.5ft 16s 9s 18 22 mph 997.7mb 63f 61f
5:50am 15.5ft 15s 9s 20 25 mph 997.6mb 63f 61f
3:50am 14ft 15s 9s 20 25 mph 997.3mb 62f 62f
2:50am 14ft 9s 9s 20 25 mph 996.8mb 63f 61f
1:50am 14.5ft 15s 9s 22 27 mph 996.5mb 63f 62f
12:50am 13.5ft 9s 8s 22 27 mph 996mb 63f 62f
Sun 10/19 11:50pm 15.5ft 13s 9s 22 27 mph 996.1mb 63f 62f
10:50pm 15ft 13s 9s 20 25 mph 996mb 63f 61f
9:50pm 14.5ft 13s 8s 22 27 mph 995.6mb 63f 62f
8:50pm 14ft 9s 8s 27 31 mph 995.3mb 63f 62f
7:50pm 14.5ft 10s 8s 22 27 mph 995.6mb 63f 62f
6:50pm 15.5ft 13s 8s 22 27 mph 995.1mb 63f 61f
5:50pm 14.5ft 13s 8s 25 34 mph 994.7mb 63f 61f
4:50pm 15.5ft 10s 8s 20 22 mph 994.4mb 63f 60f
3:50pm 15.5ft 9s 9s 18 25 mph 994.3mb 63f 58f
2:50pm 16ft 10s 9s 20 27 mph 993.1mb 63f 61f
1:50pm 15ft 10s 8s 22 29 mph 992.6mb 63f 60f
12:50pm 14ft 9s 8s 20 25 mph 992.1mb 63f 62f
11:50am 14ft 11s 8s 20 25 mph 992.1mb 63f 60f
10:50am 14ft 10s 8s 20 27 mph 992.3mb 63f 63f
9:50am 15.5ft 10s 8s 22 29 mph 992.4mb 63f 63f
8:50am 15ft 10s 8s 22 27 mph 992.2mb 63f 60f
7:50am 15.5ft 10s 8s 22 27 mph 991.8mb 63f 63f
6:50am 15ft 10s 8s 20 25 mph 992.3mb 63f 62f
5:50am 15ft 9s 7s 25 38 mph 992.7mb 63f 61f
4:50am 15ft 9s 7s 31 40 mph 992.3mb 63f 63f